createdAt,value
2018-05-11T00:00:59.061Z,16.51
2018-05-11T00:03:26.697Z,16.48
2018-05-11T00:05:54.430Z,16.48
2018-05-11T00:08:22.009Z,16.48
2018-05-11T00:10:49.559Z,16.50
2018-05-11T00:13:17.171Z,16.52
2018-05-11T00:15:44.800Z,16.55
2018-05-11T00:18:12.386Z,16.56
2018-05-11T00:20:40.249Z,16.56
2018-05-11T00:23:07.835Z,16.56
2018-05-11T00:25:35.404Z,16.59
2018-05-11T00:28:03.072Z,16.61
2018-05-11T00:30:30.645Z,16.61
2018-05-11T00:32:59.932Z,16.57
2018-05-11T00:35:28.469Z,16.57
2018-05-11T00:37:56.090Z,16.54
2018-05-11T00:40:23.724Z,16.51
2018-05-11T00:42:51.419Z,16.53
2018-05-11T00:45:18.977Z,16.53
2018-05-11T00:47:46.602Z,16.51
2018-05-11T00:50:14.308Z,16.55
2018-05-11T00:52:41.933Z,16.57
2018-05-11T00:55:23.483Z,16.65
2018-05-11T00:57:51.296Z,16.66
2018-05-11T01:00:18.868Z,16.69
2018-05-11T01:02:46.568Z,16.71
2018-05-11T01:05:14.137Z,16.71
2018-05-11T01:07:41.712Z,16.73
2018-05-11T01:10:09.441Z,16.76
2018-05-11T01:12:37.018Z,16.78
2018-05-11T01:15:04.613Z,16.83
2018-05-11T01:17:32.338Z,16.83
2018-05-11T01:20:00.133Z,16.84
2018-05-11T01:22:27.715Z,16.82
2018-05-11T01:24:55.348Z,16.80
2018-05-11T01:27:22.920Z,16.82
2018-05-11T01:29:50.552Z,16.78
2018-05-11T01:32:18.178Z,16.79
2018-05-11T01:34:45.775Z,16.82
2018-05-11T01:37:13.342Z,16.88
2018-05-11T01:39:41.286Z,16.92
2018-05-11T01:42:08.898Z,16.94
2018-05-11T01:44:36.475Z,16.95
2018-05-11T01:47:04.108Z,16.97
2018-05-11T01:49:31.721Z,17.00
2018-05-11T01:51:59.310Z,16.99
2018-05-11T01:54:27.027Z,16.99
2018-05-11T01:56:54.591Z,16.97
2018-05-11T01:59:22.192Z,16.93
2018-05-11T02:01:49.903Z,16.90
2018-05-11T02:04:17.560Z,16.87
2018-05-11T02:06:45.147Z,16.84
2018-05-11T02:09:12.779Z,16.84
2018-05-11T02:11:45.353Z,16.82
2018-05-11T02:14:13.925Z,16.79
2018-05-11T02:16:41.527Z,16.74
2018-05-11T02:19:09.160Z,16.67
2018-05-11T02:21:36.845Z,16.70
2018-05-11T02:24:04.484Z,16.72
2018-05-11T02:26:32.080Z,16.74
2018-05-11T02:28:59.791Z,16.72
2018-05-11T02:31:27.383Z,16.73
2018-05-11T02:33:55.007Z,16.73
2018-05-11T02:36:22.656Z,16.68
2018-05-11T02:38:50.291Z,16.65
2018-05-11T02:41:17.883Z,16.68
2018-05-11T02:43:45.652Z,16.69
2018-05-11T02:46:13.233Z,16.72
2018-05-11T02:48:41.426Z,16.70
2018-05-11T02:51:09.171Z,16.71
2018-05-11T02:53:36.811Z,16.71
2018-05-11T02:56:04.416Z,16.73
2018-05-11T02:58:32.037Z,16.77
2018-05-11T03:00:59.737Z,16.80
2018-05-11T03:03:27.318Z,16.85
2018-05-11T03:05:55.600Z,16.88
2018-05-11T03:08:23.671Z,16.93
2018-05-11T03:10:51.264Z,16.94
2018-05-11T03:13:18.900Z,16.95
2018-05-11T03:15:46.489Z,16.97
2018-05-11T03:18:14.055Z,17.01
2018-05-11T03:20:41.766Z,17.02
2018-05-11T03:23:09.418Z,17.09
2018-05-11T03:25:36.979Z,17.10
2018-05-11T03:28:04.680Z,17.05
2018-05-11T03:30:32.298Z,17.05
2018-05-11T03:32:59.957Z,17.06
2018-05-11T03:35:27.672Z,17.04
2018-05-11T03:37:55.311Z,17.06
2018-05-11T03:40:22.899Z,17.07
2018-05-11T03:42:50.671Z,17.06
2018-05-11T03:45:18.249Z,17.03
2018-05-11T03:47:45.916Z,17.01
2018-05-11T03:50:13.612Z,16.99
2018-05-11T03:52:41.232Z,17.02
2018-05-11T03:55:08.840Z,17.00
2018-05-11T03:57:36.571Z,17.02
2018-05-11T04:00:04.271Z,17.07
2018-05-11T04:02:44.887Z,17.13
2018-05-11T04:05:24.158Z,17.12
2018-05-11T04:08:04.551Z,17.20
2018-05-11T04:10:32.159Z,17.21
2018-05-11T04:12:59.802Z,17.26
2018-05-11T04:15:27.437Z,17.31
2018-05-11T04:17:55.067Z,17.36
2018-05-11T04:20:22.702Z,17.40
2018-05-11T04:22:50.455Z,17.40
2018-05-11T04:25:18.033Z,17.44
2018-05-11T04:27:45.721Z,17.44
2018-05-11T04:30:13.483Z,17.45
2018-05-11T04:32:41.037Z,17.49
2018-05-11T04:35:08.644Z,17.45
2018-05-11T04:37:36.363Z,17.45
2018-05-11T04:40:03.978Z,17.43
2018-05-11T04:42:31.556Z,17.41
2018-05-11T04:44:59.232Z,17.37
2018-05-11T04:47:26.824Z,17.35
2018-05-11T04:49:55.380Z,17.31
2018-05-11T04:52:23.020Z,17.34
2018-05-11T04:54:50.611Z,17.37
2018-05-11T04:57:18.273Z,17.43
2018-05-11T04:59:45.959Z,17.50
2018-05-11T05:02:13.556Z,17.52
2018-05-11T05:04:41.324Z,17.56
2018-05-11T05:07:09.021Z,17.59
2018-05-11T05:09:36.590Z,17.64
2018-05-11T05:12:04.878Z,17.68
2018-05-11T05:14:32.578Z,17.67
2018-05-11T05:17:00.245Z,17.67
2018-05-11T05:19:27.984Z,17.69
2018-05-11T05:21:55.613Z,17.62
2018-05-11T05:24:23.199Z,17.53
2018-05-11T05:26:50.845Z,17.47
2018-05-11T05:29:18.508Z,17.38
2018-05-11T05:31:46.075Z,17.29
2018-05-11T05:34:13.686Z,17.25
2018-05-11T05:36:41.964Z,17.19
2018-05-11T05:39:09.690Z,17.06
2018-05-11T05:41:37.239Z,17.00
2018-05-11T05:44:04.980Z,16.98
2018-05-11T05:46:32.556Z,16.98
2018-05-11T05:49:00.148Z,16.94
2018-05-11T05:51:27.764Z,16.94
2018-05-11T05:53:55.344Z,16.95
2018-05-11T05:56:22.903Z,16.88
2018-05-11T05:58:50.864Z,16.75
2018-05-11T06:01:18.436Z,16.83
2018-05-11T06:03:45.995Z,16.84
2018-05-11T06:06:13.644Z,16.90
2018-05-11T06:08:41.217Z,16.83
2018-05-11T06:11:08.877Z,16.90
2018-05-11T06:13:36.504Z,16.93
2018-05-11T06:16:04.080Z,17.00
2018-05-11T06:18:31.718Z,17.02
2018-05-11T06:20:59.404Z,16.98
2018-05-11T06:23:26.988Z,16.99
2018-05-11T06:25:54.555Z,16.99
2018-05-11T06:28:22.200Z,16.98
2018-05-11T06:30:49.816Z,17.00
2018-05-11T06:33:17.471Z,17.04
2018-05-11T06:35:45.147Z,17.14
2018-05-11T06:38:12.785Z,17.22
2018-05-11T06:40:40.383Z,17.27
2018-05-11T06:43:08.023Z,17.35
2018-05-11T06:45:35.680Z,17.45
2018-05-11T06:48:03.296Z,17.58
2018-05-11T06:50:30.905Z,17.77
2018-05-11T06:52:58.552Z,17.94
2018-05-11T06:55:26.157Z,18.11
2018-05-11T06:57:53.876Z,18.19
2018-05-11T07:00:21.440Z,18.32
2018-05-11T07:02:49.014Z,18.36
2018-05-11T07:05:16.710Z,18.42
2018-05-11T07:07:44.449Z,18.25
2018-05-11T07:10:11.967Z,18.37
2018-05-11T07:12:40.293Z,18.48
2018-05-11T07:15:07.877Z,18.58
2018-05-11T07:17:35.458Z,18.63
2018-05-11T07:20:03.130Z,18.72
2018-05-11T07:22:30.729Z,18.88
2018-05-11T07:24:58.382Z,19.17
2018-05-11T07:27:26.028Z,19.48
2018-05-11T07:29:53.608Z,19.61
2018-05-11T07:32:21.245Z,19.71
2018-05-11T07:34:49.083Z,20.00
2018-05-11T07:37:16.655Z,20.27
2018-05-11T07:39:44.234Z,20.55
2018-05-11T07:42:11.958Z,20.82
2018-05-11T07:44:39.532Z,20.89
2018-05-11T07:47:07.295Z,20.81
2018-05-11T07:49:35.017Z,20.89
2018-05-11T07:52:02.581Z,20.75
2018-05-11T07:54:30.170Z,20.46
2018-05-11T07:56:57.914Z,20.44
2018-05-11T07:59:25.591Z,20.47
2018-05-11T08:01:53.224Z,20.43
2018-05-11T08:04:20.917Z,20.46
2018-05-11T08:06:48.552Z,20.54
2018-05-11T08:09:16.139Z,20.71
2018-05-11T08:11:43.832Z,20.96
2018-05-11T08:14:11.497Z,21.11
2018-05-11T08:16:39.043Z,21.20
2018-05-11T08:19:07.005Z,20.94
2018-05-11T08:21:35.362Z,20.63
2018-05-11T08:24:03.460Z,20.70
2018-05-11T08:26:31.247Z,20.83
2018-05-11T08:28:58.929Z,21.15
2018-05-11T08:31:26.521Z,21.15
2018-05-11T08:33:54.156Z,21.20
2018-05-11T08:36:21.803Z,21.33
2018-05-11T08:38:49.467Z,21.49
2018-05-11T08:41:17.157Z,21.59
2018-05-11T08:43:44.733Z,21.61
2018-05-11T08:46:12.323Z,21.79
2018-05-11T08:48:40.056Z,22.18
2018-05-11T08:51:07.675Z,22.82
2018-05-11T08:53:35.258Z,22.89
2018-05-11T08:56:02.918Z,22.94
2018-05-11T08:58:31.030Z,22.90
2018-05-11T09:00:58.688Z,22.81
2018-05-11T09:03:26.307Z,22.85
2018-05-11T09:05:53.899Z,22.95
2018-05-11T09:08:21.542Z,23.00
2018-05-11T09:10:49.174Z,23.07
2018-05-11T09:13:16.752Z,23.11
2018-05-11T09:15:44.325Z,23.20
2018-05-11T09:18:11.961Z,23.15
2018-05-11T09:20:39.593Z,23.26
2018-05-11T09:23:07.183Z,23.44
2018-05-11T09:25:34.802Z,23.65
2018-05-11T09:28:02.373Z,23.70
2018-05-11T09:30:29.954Z,23.59
2018-05-11T09:32:57.658Z,23.44
2018-05-11T09:37:53.461Z,23.27
2018-05-11T09:40:21.092Z,23.19
2018-05-11T09:42:49.520Z,23.10
2018-05-11T09:45:17.098Z,23.01
2018-05-11T09:47:44.716Z,22.72
2018-05-11T09:50:12.301Z,22.61
2018-05-11T09:52:39.900Z,22.55
2018-05-11T09:55:07.591Z,22.54
2018-05-11T09:57:35.177Z,22.57
2018-05-11T10:00:02.821Z,22.46
2018-05-11T10:02:31.363Z,22.50
2018-05-11T10:04:59.002Z,22.51
2018-05-11T10:07:26.597Z,22.49
2018-05-11T10:09:54.364Z,22.41
2018-05-11T10:12:22.252Z,22.32
2018-05-11T10:14:49.881Z,22.29
2018-05-11T10:17:17.567Z,22.37
2018-05-11T10:19:45.258Z,22.42
2018-05-11T10:22:12.844Z,22.45
2018-05-11T10:24:40.475Z,22.34
2018-05-11T10:27:08.056Z,22.27
2018-05-11T10:29:35.624Z,22.20
2018-05-11T10:32:03.360Z,22.10
2018-05-11T10:34:31.024Z,22.01
2018-05-11T10:36:59.309Z,21.96
2018-05-11T10:39:27.104Z,22.01
2018-05-11T10:41:54.681Z,22.06
2018-05-11T10:44:22.315Z,22.14
2018-05-11T10:46:49.927Z,22.16
2018-05-11T10:49:17.506Z,22.13
2018-05-11T10:51:45.140Z,22.23
2018-05-11T10:54:12.873Z,22.26
2018-05-11T10:56:40.627Z,22.26
2018-05-11T10:59:08.244Z,22.47
2018-05-11T11:01:35.867Z,22.77
2018-05-11T11:04:03.468Z,22.98
2018-05-11T11:06:31.147Z,23.28
2018-05-11T11:08:58.773Z,23.33
2018-05-11T11:11:26.358Z,23.30
2018-05-11T11:13:54.030Z,23.66
2018-05-11T11:16:21.669Z,23.91
2018-05-11T11:18:49.248Z,24.31
2018-05-11T11:21:17.497Z,24.77
2018-05-11T11:23:45.225Z,24.91
2018-05-11T11:26:12.869Z,24.75
2018-05-11T11:28:40.599Z,24.63
2018-05-11T11:31:08.311Z,24.57
2018-05-11T11:33:35.896Z,24.39
2018-05-11T11:36:03.596Z,24.37
2018-05-11T11:38:31.997Z,24.05
2018-05-11T11:40:59.615Z,23.88
2018-05-11T11:43:27.204Z,23.60
2018-05-11T11:45:55.038Z,23.48
2018-05-11T11:48:22.704Z,23.32
2018-05-11T11:50:51.091Z,23.16
2018-05-11T11:53:18.757Z,23.05
2018-05-11T11:55:46.411Z,22.86
2018-05-11T11:58:13.996Z,22.78
2018-05-11T12:00:44.706Z,22.75
2018-05-11T12:03:12.280Z,22.63
2018-05-11T12:05:39.862Z,22.58
2018-05-11T12:08:07.536Z,22.38
2018-05-11T12:10:35.133Z,21.87
2018-05-11T12:13:02.779Z,21.55
2018-05-11T12:15:30.519Z,21.25
2018-05-11T12:17:58.091Z,21.11
2018-05-11T12:20:25.687Z,20.86
2018-05-11T12:22:53.303Z,20.28
2018-05-11T12:25:20.876Z,20.08
2018-05-11T12:27:48.451Z,19.95
2018-05-11T12:30:16.206Z,19.81
2018-05-11T12:32:43.776Z,19.72
2018-05-11T12:35:11.350Z,19.70
2018-05-11T12:37:38.972Z,19.66
2018-05-11T12:40:06.563Z,19.49
2018-05-11T12:42:34.136Z,19.40
2018-05-11T12:45:01.816Z,19.52
2018-05-11T12:47:29.472Z,19.66
2018-05-11T12:49:57.109Z,19.64
2018-05-11T12:52:24.876Z,19.78
2018-05-11T12:54:52.430Z,19.86
2018-05-11T12:57:20.066Z,19.95
2018-05-11T12:59:47.776Z,19.96
2018-05-11T13:02:15.356Z,20.00
2018-05-11T13:04:42.959Z,20.01
2018-05-11T13:07:10.760Z,19.94
2018-05-11T13:09:38.351Z,19.96
2018-05-11T13:12:05.959Z,20.08
2018-05-11T13:14:33.619Z,20.24
2018-05-11T13:17:01.278Z,20.32
2018-05-11T13:19:28.912Z,20.48
2018-05-11T13:21:56.559Z,20.64
2018-05-11T13:24:24.172Z,20.79
2018-05-11T13:26:51.804Z,20.95
2018-05-11T13:29:19.460Z,21.09
2018-05-11T13:31:47.047Z,21.17
2018-05-11T13:34:14.716Z,21.19
2018-05-11T13:36:42.390Z,21.16
2018-05-11T13:39:10.048Z,21.09
2018-05-11T13:41:37.721Z,21.00
2018-05-11T13:44:05.682Z,21.10
2018-05-11T13:46:33.353Z,21.10
2018-05-11T13:49:01.003Z,21.08
2018-05-11T13:51:28.626Z,21.20
2018-05-11T13:53:56.205Z,21.27
2018-05-11T13:56:23.962Z,21.32
2018-05-11T13:58:51.536Z,21.44
2018-05-11T14:01:19.192Z,21.39
2018-05-11T14:03:46.816Z,21.39
2018-05-11T14:06:14.512Z,21.24
2018-05-11T14:08:42.101Z,21.29
2018-05-11T14:11:09.737Z,21.34
2018-05-11T14:13:37.452Z,21.33
2018-05-11T14:16:05.181Z,21.40
2018-05-11T14:18:32.843Z,21.47
2018-05-11T14:21:00.475Z,21.49
2018-05-11T14:23:28.072Z,21.56
2018-05-11T14:25:55.732Z,21.54
2018-05-11T14:28:23.429Z,21.52
2018-05-11T14:30:51.016Z,21.53
2018-05-11T14:33:18.603Z,21.56
2018-05-11T14:35:46.241Z,21.57
2018-05-11T14:38:13.905Z,21.63
2018-05-11T14:40:41.505Z,21.66
2018-05-11T14:43:09.147Z,21.66
2018-05-11T14:45:37.504Z,21.70
2018-05-11T14:48:05.100Z,21.69
2018-05-11T14:50:32.736Z,21.62
2018-05-11T14:53:00.365Z,21.64
2018-05-11T14:55:28.047Z,21.71
2018-05-11T14:57:55.785Z,21.79
2018-05-11T15:00:23.390Z,21.89
2018-05-11T15:02:50.994Z,21.86
2018-05-11T15:05:18.632Z,21.88
2018-05-11T15:07:46.209Z,21.90
2018-05-11T15:10:13.902Z,21.95
2018-05-11T15:12:41.457Z,21.98
2018-05-11T15:15:11.450Z,21.98
2018-05-11T15:17:39.113Z,21.96
2018-05-11T15:20:07.097Z,21.92
2018-05-11T15:22:34.743Z,21.89
2018-05-11T15:25:02.340Z,21.84
2018-05-11T15:27:30.052Z,21.83
2018-05-11T15:29:57.641Z,21.81
2018-05-11T15:32:25.288Z,21.76
2018-05-11T15:34:52.961Z,21.73
2018-05-11T15:37:20.549Z,21.69
2018-05-11T15:39:48.168Z,21.71
2018-05-11T15:42:15.799Z,21.73
2018-05-11T15:44:43.408Z,21.68
2018-05-11T15:47:11.071Z,21.62
2018-05-11T15:49:38.757Z,21.59
2018-05-11T15:52:06.396Z,21.54
2018-05-11T15:54:33.975Z,21.48
2018-05-11T15:57:01.607Z,21.44
2018-05-11T15:59:29.184Z,21.41
2018-05-11T16:01:56.780Z,21.31
2018-05-11T16:04:24.492Z,21.27
2018-05-11T16:06:52.666Z,21.22
2018-05-11T16:09:20.318Z,21.07
2018-05-11T16:11:48.049Z,21.00
2018-05-11T16:14:15.721Z,20.98
2018-05-11T16:16:43.308Z,20.91
2018-05-11T16:19:10.955Z,20.91
2018-05-11T16:21:38.592Z,20.90
2018-05-11T16:24:06.258Z,20.85
2018-05-11T16:26:34.079Z,20.79
2018-05-11T16:29:01.668Z,20.81
2018-05-11T16:31:29.312Z,20.79
2018-05-11T16:33:56.971Z,20.81
2018-05-11T16:36:24.571Z,20.82
2018-05-11T16:38:52.148Z,20.81
2018-05-11T16:41:19.877Z,20.81
2018-05-11T16:43:47.563Z,20.84
2018-05-11T16:46:15.131Z,20.82
2018-05-11T16:48:42.775Z,20.77
2018-05-11T16:51:10.487Z,20.74
2018-05-11T16:53:38.101Z,20.73
2018-05-11T16:56:05.720Z,20.65
2018-05-11T16:58:33.308Z,20.63
2018-05-11T17:01:00.954Z,20.64
2018-05-11T17:03:29.344Z,20.62
2018-05-11T17:05:57.857Z,20.62
2018-05-11T17:08:25.428Z,20.60
2018-05-11T17:10:53.092Z,20.53
2018-05-11T17:13:20.751Z,20.51
2018-05-11T17:15:48.307Z,20.44
2018-05-11T17:18:16.102Z,20.45
2018-05-11T17:20:43.778Z,20.44
2018-05-11T17:23:11.408Z,20.42
2018-05-11T17:25:39.109Z,20.41
2018-05-11T17:28:06.681Z,20.34
2018-05-11T17:30:34.330Z,20.27
2018-05-11T17:33:01.973Z,20.25
2018-05-11T17:35:29.645Z,20.22
2018-05-11T17:37:57.242Z,20.21
2018-05-11T17:40:24.877Z,20.15
2018-05-11T17:42:52.748Z,20.11
2018-05-11T17:45:20.385Z,19.98
2018-05-11T17:47:48.056Z,19.90
2018-05-11T17:50:15.652Z,19.74
2018-05-11T17:52:44.108Z,19.47
2018-05-11T17:55:12.586Z,19.35
2018-05-11T17:57:40.849Z,19.15
2018-05-11T18:00:09.345Z,18.97
2018-05-11T18:02:37.106Z,18.83
2018-05-11T18:05:04.689Z,18.64
2018-05-11T18:07:32.278Z,18.53
2018-05-11T18:10:01.380Z,18.39
2018-05-11T18:12:28.995Z,18.24
2018-05-11T18:14:56.516Z,18.16
2018-05-11T18:17:24.149Z,18.07
2018-05-11T18:19:51.843Z,17.99
2018-05-11T18:22:19.432Z,17.76
2018-05-11T18:24:47.241Z,17.57
2018-05-11T18:27:14.881Z,17.48
2018-05-11T18:29:42.511Z,17.42
2018-05-11T18:32:10.309Z,17.36
2018-05-11T18:34:37.896Z,17.29
2018-05-11T18:37:05.533Z,17.23
2018-05-11T18:39:33.183Z,17.17
2018-05-11T18:42:00.851Z,17.12
2018-05-11T18:44:28.448Z,17.12
2018-05-11T18:46:56.243Z,17.12
2018-05-11T18:49:23.840Z,17.08
2018-05-11T18:51:51.427Z,17.09
2018-05-11T18:54:19.377Z,17.11
2018-05-11T18:56:46.792Z,17.14
2018-05-11T18:59:14.372Z,17.12
2018-05-11T19:01:42.271Z,17.08
2018-05-11T19:04:10.114Z,17.02
2018-05-11T19:06:37.988Z,16.99
2018-05-11T19:09:07.169Z,16.95
2018-05-11T19:11:35.117Z,16.87
2018-05-11T19:14:03.107Z,16.82
2018-05-11T19:16:30.985Z,16.76
2018-05-11T19:18:58.912Z,16.69
2018-05-11T19:21:26.736Z,16.63
2018-05-11T19:23:55.162Z,16.57
2018-05-11T19:26:23.272Z,16.52
2018-05-11T19:28:51.309Z,16.44
2018-05-11T19:31:19.748Z,16.37
2018-05-11T19:33:47.758Z,16.28
2018-05-11T19:36:15.890Z,16.14
2018-05-11T19:38:44.204Z,16.01
2018-05-11T19:41:13.152Z,15.94
2018-05-11T19:43:41.224Z,15.92
2018-05-11T19:46:09.489Z,15.89
2018-05-11T19:48:37.533Z,15.79
2018-05-11T19:51:05.536Z,15.69
2018-05-11T19:53:34.685Z,15.61
2018-05-11T19:56:02.716Z,15.58
2018-05-11T19:58:30.788Z,15.52
2018-05-11T20:00:58.952Z,15.50
2018-05-11T20:03:27.175Z,15.55
2018-05-11T20:05:55.709Z,15.57
2018-05-11T20:08:29.299Z,15.52
2018-05-11T20:10:57.444Z,15.46
2018-05-11T20:13:25.351Z,15.44
2018-05-11T20:15:54.678Z,15.45
2018-05-11T20:18:22.719Z,15.48
2018-05-11T20:20:50.809Z,15.50
2018-05-11T20:23:19.078Z,15.53
2018-05-11T20:25:46.986Z,15.57
2018-05-11T20:28:14.984Z,15.52
2018-05-11T20:30:42.938Z,15.49
2018-05-11T20:33:10.924Z,15.40
2018-05-11T20:35:38.833Z,15.33
2018-05-11T20:38:06.597Z,15.28
2018-05-11T20:40:34.354Z,15.22
2018-05-11T20:43:01.998Z,15.14
2018-05-11T20:45:29.811Z,15.13
2018-05-11T20:47:57.648Z,15.17
2018-05-11T20:50:25.315Z,15.14
2018-05-11T20:52:53.329Z,15.13
2018-05-11T20:55:21.294Z,15.09
2018-05-11T20:57:49.286Z,15.07
2018-05-11T21:00:18.483Z,15.04
2018-05-11T21:02:46.326Z,15.03
2018-05-11T21:05:14.194Z,14.96
2018-05-11T21:07:42.152Z,14.88
2018-05-11T21:10:10.458Z,14.86
2018-05-11T21:12:38.303Z,14.89
2018-05-11T21:15:06.256Z,14.95
2018-05-11T21:17:34.073Z,15.02
2018-05-11T21:20:01.910Z,15.02
2018-05-11T21:22:29.936Z,15.05
2018-05-11T21:24:57.776Z,14.98
2018-05-11T21:27:25.706Z,14.94
2018-05-11T21:29:53.629Z,14.86
2018-05-11T21:32:21.437Z,14.79
2018-05-11T21:34:49.265Z,14.77
2018-05-11T21:37:17.278Z,14.68
2018-05-11T21:39:45.118Z,14.64
2018-05-11T21:42:12.938Z,14.60
2018-05-11T21:44:41.274Z,14.53
2018-05-11T21:47:09.876Z,14.41
2018-05-11T21:49:37.694Z,14.36
2018-05-11T21:52:05.615Z,14.32
2018-05-11T21:54:33.529Z,14.32
2018-05-11T21:57:01.474Z,14.33
2018-05-11T21:59:29.361Z,14.35
2018-05-11T22:01:57.393Z,14.32
2018-05-11T22:04:25.177Z,14.26
2018-05-11T22:06:53.138Z,14.20
2018-05-11T22:09:20.721Z,14.17
2018-05-11T22:11:49.044Z,14.19
2018-05-11T22:14:16.665Z,14.24
2018-05-11T22:16:44.257Z,14.23
2018-05-11T22:19:11.848Z,14.25
2018-05-11T22:21:39.583Z,14.28
2018-05-11T22:24:07.190Z,14.25
2018-05-11T22:26:34.774Z,14.20
2018-05-11T22:29:02.396Z,14.20
2018-05-11T22:31:30.043Z,14.20
2018-05-11T22:33:57.627Z,14.20
2018-05-11T22:36:25.251Z,14.20
2018-05-11T22:38:52.827Z,14.21
2018-05-11T22:41:20.420Z,14.24
2018-05-11T22:43:48.137Z,14.28
2018-05-11T22:46:15.721Z,14.27
2018-05-11T22:48:43.291Z,14.29
2018-05-11T22:51:10.931Z,14.32
2018-05-11T22:53:38.507Z,14.28
2018-05-11T22:56:06.123Z,14.19
2018-05-11T22:58:33.853Z,14.22
2018-05-11T23:01:01.518Z,14.33
2018-05-11T23:03:29.120Z,14.47
2018-05-11T23:05:56.753Z,14.63
2018-05-11T23:08:24.344Z,14.79
2018-05-11T23:10:51.921Z,14.95
2018-05-11T23:13:19.622Z,15.07
2018-05-11T23:15:47.216Z,15.19
2018-05-11T23:18:14.780Z,15.29
2018-05-11T23:20:42.428Z,15.38
2018-05-11T23:23:10.003Z,15.45
2018-05-11T23:25:37.578Z,15.54
2018-05-11T23:28:05.261Z,15.60
2018-05-11T23:30:32.851Z,15.67
2018-05-11T23:33:00.459Z,15.70
2018-05-11T23:35:28.196Z,15.70
2018-05-11T23:37:55.789Z,15.68
2018-05-11T23:40:23.390Z,15.68
2018-05-11T23:42:51.057Z,15.66
2018-05-11T23:45:18.724Z,15.66
2018-05-11T23:47:46.272Z,15.63
2018-05-11T23:50:14.020Z,15.67
2018-05-11T23:52:41.589Z,15.69
2018-05-11T23:55:09.167Z,15.70
2018-05-11T23:57:36.807Z,15.70
